Time;durP1;ratioP1;P1;durP2;ratioP2;P2;SDS_P1;SDS_P2;PMS_P1;PMS_P2;Temp;Humidity;BMP_temperature;BMP_pressure;BME280_temperature;BME280_humidity;BME280_pressure;Samples;Min_cycle;Max_cycle;Signal;HPM_P1;HPM_P2
2021/07/24 00:02:20;;;;;;;16.55;12.55;;;;;;;;;;5097975;28;20052;-93
2021/07/24 00:04:46;;;;;;;15.50;12.25;;;;;;;;;;5113420;28;20035;-91
2021/07/24 00:07:12;;;;;;;14.95;11.80;;;;;;;;;;5098510;28;20016;-91
2021/07/24 00:09:38;;;;;;;16.20;12.52;;;;;;;;;;5098578;28;20024;-91
2021/07/24 00:12:05;;;;;;;17.02;12.48;;;;;;;;;;5097995;28;20042;-92
2021/07/24 00:14:31;;;;;;;15.90;11.60;;;;;;;;;;5097559;28;20064;-92
2021/07/24 00:16:57;;;;;;;14.68;10.98;;;;;;;;;;5113285;28;20028;-90
2021/07/24 00:19:23;;;;;;;17.08;11.55;;;;;;;;;;5113899;28;20023;-91
2021/07/24 00:21:49;;;;;;;13.35;10.68;;;;;;;;;;5097976;28;20110;-90
2021/07/24 00:24:15;;;;;;;14.23;11.23;;;;;;;;;;5113630;28;20342;-90
2021/07/24 00:26:42;;;;;;;16.10;10.90;;;;;;;;;;5097949;28;20020;-90
2021/07/24 00:29:08;;;;;;;14.30;10.95;;;;;;;;;;5097907;28;20028;-91
2021/07/24 00:31:35;;;;;;;13.70;10.55;;;;;;;;;;5098169;28;20035;-91
2021/07/24 00:34:02;;;;;;;15.00;10.90;;;;;;;;;;5113420;28;20032;-91
2021/07/24 00:36:28;;;;;;;17.85;11.77;;;;;;;;;;5097913;28;20024;-90
2021/07/24 00:38:54;;;;;;;15.55;11.32;;;;;;;;;;5098046;28;20016;-91
2021/07/24 00:41:25;;;;;;;11.85;10.05;;;;;;;;;;5097749;28;20016;-92
2021/07/24 00:43:51;;;;;;;19.00;11.40;;;;;;;;;;5097673;28;20105;-92
2021/07/24 00:46:19;;;;;;;18.23;10.60;;;;;;;;;;5113659;28;20335;-92
2021/07/24 00:48:46;;;;;;;13.50;11.23;;;;;;;;;;5097606;28;20111;-92
2021/07/24 00:51:13;;;;;;;15.90;11.48;;;;;;;;;;5113022;28;20032;-94
2021/07/24 00:53:39;;;;;;;15.30;11.40;;;;;;;;;;5097652;28;20032;-91
2021/07/24 00:56:06;;;;;;;16.52;11.85;;;;;;;;;;5097702;28;20052;-92
2021/07/24 00:58:35;;;;;;;18.42;12.57;;;;;;;;;;5097579;28;20020;-92
2021/07/24 01:01:01;;;;;;;15.77;11.70;;;;;;;;;;5097761;28;20024;-91
2021/07/24 01:03:27;;;;;;;15.48;12.25;;;;;;;;;;5112607;28;20130;-91
2021/07/24 01:05:54;;;;;;;18.55;12.60;;;;;;;;;;5113392;28;20024;-90
2021/07/24 01:08:21;;;;;;;17.67;12.68;;;;;;;;;;5097504;28;20028;-90
2021/07/24 01:10:48;;;;;;;18.17;12.85;;;;;;;;;;5097558;28;20052;-91
2021/07/24 01:13:18;;;;;;;17.63;13.00;;;;;;;;;;5117638;28;20109;-91
2021/07/24 01:15:47;;;;;;;17.48;12.63;;;;;;;;;;5101346;28;20024;-91
2021/07/24 01:18:13;;;;;;;18.98;13.65;;;;;;;;;;5101277;28;20027;-91
2021/07/24 01:20:41;;;;;;;14.23;12.75;;;;;;;;;;5101097;28;20012;-92
2021/07/24 01:23:07;;;;;;;18.25;13.15;;;;;;;;;;5101189;28;20030;-91
2021/07/24 01:25:33;;;;;;;18.48;14.07;;;;;;;;;;5116456;28;20036;-91
2021/07/24 01:27:59;;;;;;;19.67;14.60;;;;;;;;;;5117276;28;20032;-91
2021/07/24 01:30:25;;;;;;;17.27;13.73;;;;;;;;;;5117250;28;20035;-91
2021/07/24 01:32:51;;;;;;;19.23;13.77;;;;;;;;;;5101020;28;20031;-91
2021/07/24 01:35:17;;;;;;;19.15;13.35;;;;;;;;;;5101100;28;20024;-92
2021/07/24 01:37:43;;;;;;;20.10;13.35;;;;;;;;;;5101134;28;20062;-92
2021/07/24 01:40:10;;;;;;;15.98;13.32;;;;;;;;;;5101006;28;20073;-90
2021/07/24 01:42:36;;;;;;;16.10;14.13;;;;;;;;;;5101021;28;20025;-91
2021/07/24 01:45:02;;;;;;;17.38;14.13;;;;;;;;;;5116346;28;20036;-92
2021/07/24 01:47:28;;;;;;;20.83;14.77;;;;;;;;;;5116904;28;20020;-91
2021/07/24 01:52:46;;;;;;;22.42;15.65;;;;;;;;;;5100934;28;20466;-90
2021/07/24 01:55:18;;;;;;;22.48;14.52;;;;;;;;;;5116432;28;20027;-90
2021/07/24 01:57:47;;;;;;;19.02;15.13;;;;;;;;;;5115853;28;20028;-91
2021/07/24 02:00:14;;;;;;;17.88;14.40;;;;;;;;;;5099420;28;20032;-92
2021/07/24 02:02:41;;;;;;;24.05;14.57;;;;;;;;;;5115749;28;20043;-92
2021/07/24 02:05:11;;;;;;;25.92;13.65;;;;;;;;;;5100433;28;20417;-90
2021/07/24 02:07:38;;;;;;;25.75;15.10;;;;;;;;;;5116533;28;20321;-91
2021/07/24 02:10:05;;;;;;;21.08;14.07;;;;;;;;;;5100433;28;20024;-90
2021/07/24 02:12:32;;;;;;;18.80;14.02;;;;;;;;;;5115593;28;20028;-91
2021/07/24 02:14:59;;;;;;;29.92;15.05;;;;;;;;;;5116204;28;20123;-90
2021/07/24 02:17:25;;;;;;;20.98;14.57;;;;;;;;;;5116095;28;20140;-90
2021/07/24 02:19:51;;;;;;;19.73;14.70;;;;;;;;;;5100418;28;20497;-90
2021/07/24 02:22:17;;;;;;;23.30;14.40;;;;;;;;;;5100079;28;20039;-90
2021/07/24 02:24:43;;;;;;;27.02;15.80;;;;;;;;;;5100092;28;20023;-92
2021/07/24 02:27:10;;;;;;;19.45;15.38;;;;;;;;;;5100028;28;20107;-92
2021/07/24 02:29:36;;;;;;;21.90;15.68;;;;;;;;;;5099892;28;20111;-91
2021/07/24 02:32:03;;;;;;;22.23;16.13;;;;;;;;;;5100153;28;20040;-92
2021/07/24 02:34:29;;;;;;;21.52;17.42;;;;;;;;;;5099713;28;20103;-91
2021/07/24 02:36:55;;;;;;;21.90;16.38;;;;;;;;;;5116224;28;20101;-91
2021/07/24 02:39:21;;;;;;;23.90;16.13;;;;;;;;;;5115179;28;20032;-92
2021/07/24 02:41:47;;;;;;;25.27;17.55;;;;;;;;;;5099850;28;20016;-91
2021/07/24 02:44:13;;;;;;;20.77;15.45;;;;;;;;;;5115759;28;20028;-91
2021/07/24 02:46:39;;;;;;;20.35;16.13;;;;;;;;;;5115096;28;20032;-91
2021/07/24 02:49:07;;;;;;;20.25;16.40;;;;;;;;;;5099822;28;20047;-91
2021/07/24 02:51:33;;;;;;;24.20;16.67;;;;;;;;;;5115636;28;20110;-92
2021/07/24 02:53:59;;;;;;;22.27;16.73;;;;;;;;;;5099360;28;20036;-92
2021/07/24 02:56:26;;;;;;;21.40;16.13;;;;;;;;;;5115532;28;20036;-92
2021/07/24 02:58:52;;;;;;;19.83;15.60;;;;;;;;;;5114683;28;20032;-92
2021/07/24 03:01:18;;;;;;;24.40;16.73;;;;;;;;;;5115244;28;20024;-92
2021/07/24 03:03:44;;;;;;;23.45;16.38;;;;;;;;;;5098818;28;20121;-92
2021/07/24 03:06:10;;;;;;;19.75;15.70;;;;;;;;;;5099463;28;20024;-93
2021/07/24 03:08:36;;;;;;;19.75;16.00;;;;;;;;;;5099321;28;20060;-92
2021/07/24 03:11:02;;;;;;;23.15;15.50;;;;;;;;;;5115364;28;20027;-91
2021/07/24 03:13:28;;;;;;;20.02;16.05;;;;;;;;;;5114975;28;20020;-92
2021/07/24 03:15:54;;;;;;;23.60;15.80;;;;;;;;;;5099002;28;20425;-92
2021/07/24 03:18:20;;;;;;;21.38;15.68;;;;;;;;;;5099005;28;20402;-92
2021/07/24 03:20:46;;;;;;;22.02;15.63;;;;;;;;;;5115096;28;20024;-92
2021/07/24 03:23:12;;;;;;;26.90;16.55;;;;;;;;;;5098887;28;20048;-92
2021/07/24 03:25:42;;;;;;;25.17;17.48;;;;;;;;;;5098895;28;20394;-92
2021/07/24 03:28:08;;;;;;;26.17;16.70;;;;;;;;;;5098874;28;20097;-91
2021/07/24 03:30:34;;;;;;;28.00;16.73;;;;;;;;;;5114810;28;20385;-89
2021/07/24 03:33:01;;;;;;;20.88;16.05;;;;;;;;;;5098685;28;20052;-90
2021/07/24 03:35:27;;;;;;;27.42;15.63;;;;;;;;;;5098324;28;20028;-93
2021/07/24 03:37:53;;;;;;;22.85;15.40;;;;;;;;;;5098763;28;20024;-91
2021/07/24 03:40:20;;;;;;;24.85;16.15;;;;;;;;;;5114792;28;20020;-91
2021/07/24 03:42:46;;;;;;;27.73;17.33;;;;;;;;;;5098827;28;20099;-91
2021/07/24 03:45:12;;;;;;;23.80;16.90;;;;;;;;;;5098623;28;20390;-92
2021/07/24 03:47:38;;;;;;;24.27;17.33;;;;;;;;;;5098465;28;20031;-92
2021/07/24 03:50:04;;;;;;;24.58;17.90;;;;;;;;;;5098460;28;20421;-91
2021/07/24 03:52:31;;;;;;;20.98;16.73;;;;;;;;;;5098313;28;20028;-90
2021/07/24 03:54:58;;;;;;;29.73;17.38;;;;;;;;;;5114226;28;20409;-90
2021/07/24 03:57:24;;;;;;;24.92;16.25;;;;;;;;;;5098365;28;20042;-90
2021/07/24 03:59:50;;;;;;;21.85;15.77;;;;;;;;;;5114453;28;20024;-90
2021/07/24 04:02:22;;;;;;;22.48;15.48;;;;;;;;;;5098236;28;20060;-90
2021/07/24 04:04:52;;;;;;;19.75;15.50;;;;;;;;;;5114260;28;20051;-91
2021/07/24 04:07:18;;;;;;;18.27;15.52;;;;;;;;;;5114239;28;20422;-90
2021/07/24 04:09:44;;;;;;;20.90;15.02;;;;;;;;;;5114143;28;20028;-90
2021/07/24 04:12:11;;;;;;;24.52;15.77;;;;;;;;;;5098139;28;20035;-91
2021/07/24 04:14:37;;;;;;;25.27;14.55;;;;;;;;;;5097909;28;20024;-91
2021/07/24 04:17:03;;;;;;;22.88;14.27;;;;;;;;;;5114259;28;20020;-92
2021/07/24 04:19:31;;;;;;;21.20;15.40;;;;;;;;;;5113543;28;20031;-92
2021/07/24 04:21:57;;;;;;;21.27;14.57;;;;;;;;;;5098149;28;20020;-91
2021/07/24 04:24:23;;;;;;;20.20;15.00;;;;;;;;;;5097973;28;20043;-91
2021/07/24 04:26:49;;;;;;;21.35;14.98;;;;;;;;;;5097798;28;20020;-92
2021/07/24 04:29:16;;;;;;;22.70;15.32;;;;;;;;;;5113814;28;20028;-89
2021/07/24 04:31:42;;;;;;;18.55;15.00;;;;;;;;;;5097899;28;20194;-88
2021/07/24 04:34:08;;;;;;;19.92;15.32;;;;;;;;;;5097902;28;20117;-89
2021/07/24 04:37:52;;;;;;;24.08;15.55;;;;;;;;;;5115154;27;20365;-80
2021/07/24 04:40:18;;;;;;;33.97;16.17;;;;;;;;;;5115109;28;20031;-79
2021/07/24 04:42:44;;;;;;;26.08;15.52;;;;;;;;;;5114990;28;20028;-79
2021/07/24 04:45:10;;;;;;;27.48;15.55;;;;;;;;;;5114856;28;20024;-79
2021/07/24 04:47:36;;;;;;;24.20;15.80;;;;;;;;;;5114735;28;20046;-79
2021/07/24 04:50:02;;;;;;;19.92;14.82;;;;;;;;;;5114908;28;20024;-81
2021/07/24 04:52:29;;;;;;;49.72;16.73;;;;;;;;;;5114754;28;20413;-79
